sensor_id;sensor_type;location;lat;lon;timestamp;temperature;humidity
43414;DHT22;29013;49.676;8.606;2022-08-19T00:03:32;21.9;98.2
43414;DHT22;29013;49.676;8.606;2022-08-19T00:08:59;22.0;98.1
43414;DHT22;29013;49.676;8.606;2022-08-19T00:14:28;22.0;98.2
43414;DHT22;29013;49.676;8.606;2022-08-19T00:19:55;22.0;98.2
43414;DHT22;29013;49.676;8.606;2022-08-19T00:25:17;21.9;98.5
43414;DHT22;29013;49.676;8.606;2022-08-19T00:30:43;21.8;98.8
43414;DHT22;29013;49.676;8.606;2022-08-19T00:36:09;21.8;99.2
43414;DHT22;29013;49.676;8.606;2022-08-19T00:41:37;21.7;98.7
43414;DHT22;29013;49.676;8.606;2022-08-19T00:46:58;21.7;98.8
43414;DHT22;29013;49.676;8.606;2022-08-19T00:52:26;21.6;98.9
43414;DHT22;29013;49.676;8.606;2022-08-19T00:57:53;21.6;99.1
43414;DHT22;29013;49.676;8.606;2022-08-19T01:03:20;21.6;99.3
43414;DHT22;29013;49.676;8.606;2022-08-19T01:08:47;21.5;99.3
43414;DHT22;29013;49.676;8.606;2022-08-19T01:14:14;21.6;99.2
43414;DHT22;29013;49.676;8.606;2022-08-19T01:19:41;21.6;98.8
43414;DHT22;29013;49.676;8.606;2022-08-19T01:25:09;21.7;98.9
43414;DHT22;29013;49.676;8.606;2022-08-19T01:30:34;21.6;99.4
43414;DHT22;29013;49.676;8.606;2022-08-19T01:36:04;21.6;99.6
43414;DHT22;29013;49.676;8.606;2022-08-19T01:41:30;21.6;99.2
43414;DHT22;29013;49.676;8.606;2022-08-19T01:46:57;21.7;99.2
43414;DHT22;29013;49.676;8.606;2022-08-19T01:52:25;21.7;99.2
43414;DHT22;29013;49.676;8.606;2022-08-19T01:57:54;21.7;99.0
43414;DHT22;29013;49.676;8.606;2022-08-19T02:03:16;21.7;99.4
43414;DHT22;29013;49.676;8.606;2022-08-19T02:08:46;21.6;99.3
43414;DHT22;29013;49.676;8.606;2022-08-19T02:14:13;21.6;99.1
43414;DHT22;29013;49.676;8.606;2022-08-19T02:19:40;21.7;99.9
43414;DHT22;29013;49.676;8.606;2022-08-19T02:25:10;21.6;99.4
43414;DHT22;29013;49.676;8.606;2022-08-19T02:30:38;21.5;99.5
43414;DHT22;29013;49.676;8.606;2022-08-19T02:35:59;21.6;99.9
43414;DHT22;29013;49.676;8.606;2022-08-19T02:41:25;21.6;99.7
43414;DHT22;29013;49.676;8.606;2022-08-19T02:46:48;21.6;99.8
43414;DHT22;29013;49.676;8.606;2022-08-19T02:52:15;21.6;99.8
43414;DHT22;29013;49.676;8.606;2022-08-19T02:57:37;21.5;99.9
43414;DHT22;29013;49.676;8.606;2022-08-19T03:03:03;21.4;99.9
43414;DHT22;29013;49.676;8.606;2022-08-19T03:08:29;21.3;99.9
43414;DHT22;29013;49.676;8.606;2022-08-19T03:13:52;21.3;99.9
43414;DHT22;29013;49.676;8.606;2022-08-19T03:19:20;21.3;99.9
43414;DHT22;29013;49.676;8.606;2022-08-19T03:24:45;21.2;99.9
43414;DHT22;29013;49.676;8.606;2022-08-19T03:30:12;21.2;99.9
43414;DHT22;29013;49.676;8.606;2022-08-19T03:35:33;21.2;99.9
43414;DHT22;29013;49.676;8.606;2022-08-19T03:40:55;21.1;99.9
43414;DHT22;29013;49.676;8.606;2022-08-19T03:46:23;21.0;99.9
43414;DHT22;29013;49.676;8.606;2022-08-19T03:51:48;20.8;99.9
43414;DHT22;29013;49.676;8.606;2022-08-19T03:57:14;20.8;99.9
43414;DHT22;29013;49.676;8.606;2022-08-19T04:02:40;20.7;99.9
43414;DHT22;29013;49.676;8.606;2022-08-19T04:08:08;20.8;99.9
43414;DHT22;29013;49.676;8.606;2022-08-19T04:13:37;20.7;99.9
43414;DHT22;29013;49.676;8.606;2022-08-19T04:19:01;20.6;99.9
43414;DHT22;29013;49.676;8.606;2022-08-19T04:24:28;20.6;99.9
43414;DHT22;29013;49.676;8.606;2022-08-19T04:29:51;20.6;99.9
43414;DHT22;29013;49.676;8.606;2022-08-19T04:35:20;20.5;99.9
43414;DHT22;29013;49.676;8.606;2022-08-19T04:40:48;20.5;99.9
43414;DHT22;29013;49.676;8.606;2022-08-19T04:46:11;20.5;99.9
43414;DHT22;29013;49.676;8.606;2022-08-19T04:51:39;20.5;99.9
43414;DHT22;29013;49.676;8.606;2022-08-19T04:57:01;20.5;99.9
43414;DHT22;29013;49.676;8.606;2022-08-19T05:02:26;20.5;99.9
43414;DHT22;29013;49.676;8.606;2022-08-19T05:07:52;20.6;99.9
43414;DHT22;29013;49.676;8.606;2022-08-19T05:13:19;20.7;99.9
43414;DHT22;29013;49.676;8.606;2022-08-19T05:18:45;20.6;99.9
43414;DHT22;29013;49.676;8.606;2022-08-19T05:24:11;20.7;99.9
43414;DHT22;29013;49.676;8.606;2022-08-19T05:29:39;20.7;99.9
43414;DHT22;29013;49.676;8.606;2022-08-19T05:35:03;20.8;99.9
43414;DHT22;29013;49.676;8.606;2022-08-19T05:40:26;20.8;99.9
43414;DHT22;29013;49.676;8.606;2022-08-19T05:45:49;20.9;99.9
43414;DHT22;29013;49.676;8.606;2022-08-19T05:51:10;21.0;99.9
43414;DHT22;29013;49.676;8.606;2022-08-19T05:56:36;21.0;99.9
43414;DHT22;29013;49.676;8.606;2022-08-19T06:02:03;21.2;99.9
43414;DHT22;29013;49.676;8.606;2022-08-19T06:07:29;21.3;99.9
43414;DHT22;29013;49.676;8.606;2022-08-19T06:12:57;21.5;99.9
43414;DHT22;29013;49.676;8.606;2022-08-19T06:18:22;21.6;99.9
43414;DHT22;29013;49.676;8.606;2022-08-19T06:23:48;21.7;99.6
43414;DHT22;29013;49.676;8.606;2022-08-19T06:29:16;21.9;98.9
43414;DHT22;29013;49.676;8.606;2022-08-19T06:34:38;21.9;99.7
43414;DHT22;29013;49.676;8.606;2022-08-19T06:40:06;22.0;98.7
43414;DHT22;29013;49.676;8.606;2022-08-19T06:45:28;22.2;98.4
43414;DHT22;29013;49.676;8.606;2022-08-19T06:50:54;22.2;99.3
43414;DHT22;29013;49.676;8.606;2022-08-19T06:56:19;22.3;98.2
43414;DHT22;29013;49.676;8.606;2022-08-19T07:01:44;22.5;98.2
43414;DHT22;29013;49.676;8.606;2022-08-19T07:07:10;22.6;97.8
43414;DHT22;29013;49.676;8.606;2022-08-19T07:12:32;22.7;97.2
43414;DHT22;29013;49.676;8.606;2022-08-19T07:17:58;22.9;97.3
43414;DHT22;29013;49.676;8.606;2022-08-19T07:23:26;23.0;96.6
43414;DHT22;29013;49.676;8.606;2022-08-19T07:28:54;23.1;96.7
43414;DHT22;29013;49.676;8.606;2022-08-19T07:34:19;23.3;96.5
43414;DHT22;29013;49.676;8.606;2022-08-19T07:39:43;23.9;95.4
43414;DHT22;29013;49.676;8.606;2022-08-19T07:45:12;24.5;94.3
43414;DHT22;29013;49.676;8.606;2022-08-19T07:50:36;24.8;93.5
43414;DHT22;29013;49.676;8.606;2022-08-19T07:56:02;25.2;93.0
43414;DHT22;29013;49.676;8.606;2022-08-19T08:01:28;25.6;91.9
43414;DHT22;29013;49.676;8.606;2022-08-19T08:06:54;25.5;91.2
43414;DHT22;29013;49.676;8.606;2022-08-19T08:12:19;25.3;91.5
43414;DHT22;29013;49.676;8.606;2022-08-19T08:17:42;25.3;91.5
43414;DHT22;29013;49.676;8.606;2022-08-19T08:23:09;25.2;91.0
43414;DHT22;29013;49.676;8.606;2022-08-19T08:28:34;25.2;90.9
43414;DHT22;29013;49.676;8.606;2022-08-19T08:34:03;25.3;90.5
43414;DHT22;29013;49.676;8.606;2022-08-19T08:39:34;25.3;90.2
43414;DHT22;29013;49.676;8.606;2022-08-19T08:45:00;25.2;90.1
43414;DHT22;29013;49.676;8.606;2022-08-19T08:50:25;25.3;90.3
43414;DHT22;29013;49.676;8.606;2022-08-19T08:55:51;25.4;90.1
43414;DHT22;29013;49.676;8.606;2022-08-19T09:01:18;25.6;88.9
43414;DHT22;29013;49.676;8.606;2022-08-19T09:06:49;25.9;88.8
43414;DHT22;29013;49.676;8.606;2022-08-19T09:12:13;26.3;86.6
43414;DHT22;29013;49.676;8.606;2022-08-19T09:17:40;26.6;87.2
43414;DHT22;29013;49.676;8.606;2022-08-19T09:23:05;27.0;82.9
43414;DHT22;29013;49.676;8.606;2022-08-19T09:28:32;27.5;83.4
43414;DHT22;29013;49.676;8.606;2022-08-19T09:33:54;27.8;79.4
43414;DHT22;29013;49.676;8.606;2022-08-19T09:39:17;28.2;77.0
43414;DHT22;29013;49.676;8.606;2022-08-19T09:44:40;28.2;77.0
43414;DHT22;29013;49.676;8.606;2022-08-19T09:50:11;28.5;74.5
43414;DHT22;29013;49.676;8.606;2022-08-19T09:55:33;28.6;72.2
43414;DHT22;29013;49.676;8.606;2022-08-19T10:01:03;28.6;73.3
43414;DHT22;29013;49.676;8.606;2022-08-19T10:06:30;28.7;72.1
43414;DHT22;29013;49.676;8.606;2022-08-19T10:12:02;28.2;71.8
43414;DHT22;29013;49.676;8.606;2022-08-19T10:17:28;27.9;72.1
43414;DHT22;29013;49.676;8.606;2022-08-19T10:22:55;27.8;72.9
43414;DHT22;29013;49.676;8.606;2022-08-19T10:28:23;27.8;72.1
43414;DHT22;29013;49.676;8.606;2022-08-19T10:33:49;28.1;75.1
43414;DHT22;29013;49.676;8.606;2022-08-19T10:39:17;28.4;70.3
43414;DHT22;29013;49.676;8.606;2022-08-19T10:44:42;28.6;70.0
43414;DHT22;29013;49.676;8.606;2022-08-19T10:50:11;28.3;69.4
43414;DHT22;29013;49.676;8.606;2022-08-19T10:55:39;28.6;69.4
43414;DHT22;29013;49.676;8.606;2022-08-19T11:01:06;28.8;69.2
43414;DHT22;29013;49.676;8.606;2022-08-19T11:06:35;29.0;66.8
43414;DHT22;29013;49.676;8.606;2022-08-19T11:11:59;28.7;66.0
43414;DHT22;29013;49.676;8.606;2022-08-19T11:17:25;28.9;65.7
43414;DHT22;29013;49.676;8.606;2022-08-19T11:22:50;28.4;65.9
43414;DHT22;29013;49.676;8.606;2022-08-19T11:28:18;28.5;62.6
43414;DHT22;29013;49.676;8.606;2022-08-19T11:33:46;28.7;65.5
43414;DHT22;29013;49.676;8.606;2022-08-19T11:39:14;28.5;65.9
43414;DHT22;29013;49.676;8.606;2022-08-19T11:44:40;28.5;65.0
43414;DHT22;29013;49.676;8.606;2022-08-19T11:50:03;28.6;65.3
43414;DHT22;29013;49.676;8.606;2022-08-19T11:55:28;28.4;67.0
43414;DHT22;29013;49.676;8.606;2022-08-19T12:00:52;28.8;65.8
43414;DHT22;29013;49.676;8.606;2022-08-19T12:06:14;28.9;65.3
43414;DHT22;29013;49.676;8.606;2022-08-19T12:11:37;28.9;64.6
43414;DHT22;29013;49.676;8.606;2022-08-19T12:16:59;28.8;62.8
43414;DHT22;29013;49.676;8.606;2022-08-19T12:22:21;28.7;61.5
43414;DHT22;29013;49.676;8.606;2022-08-19T12:27:43;28.9;63.1
43414;DHT22;29013;49.676;8.606;2022-08-19T12:33:05;29.0;63.2
43414;DHT22;29013;49.676;8.606;2022-08-19T12:38:27;28.7;61.3
43414;DHT22;29013;49.676;8.606;2022-08-19T12:43:49;29.0;61.7
43414;DHT22;29013;49.676;8.606;2022-08-19T12:49:11;29.0;59.8
43414;DHT22;29013;49.676;8.606;2022-08-19T12:54:39;28.9;59.0
43414;DHT22;29013;49.676;8.606;2022-08-19T13:00:07;28.9;61.2
43414;DHT22;29013;49.676;8.606;2022-08-19T13:05:29;28.9;58.5
43414;DHT22;29013;49.676;8.606;2022-08-19T13:10:53;28.5;58.3
43414;DHT22;29013;49.676;8.606;2022-08-19T13:16:20;28.3;57.6
43414;DHT22;29013;49.676;8.606;2022-08-19T13:21:45;28.4;56.5
43414;DHT22;29013;49.676;8.606;2022-08-19T13:27:13;28.3;56.7
43414;DHT22;29013;49.676;8.606;2022-08-19T13:32:40;28.3;57.6
43414;DHT22;29013;49.676;8.606;2022-08-19T13:38:02;28.6;57.7
43414;DHT22;29013;49.676;8.606;2022-08-19T13:43:30;29.1;56.7
43414;DHT22;29013;49.676;8.606;2022-08-19T13:48:58;29.5;55.7
43414;DHT22;29013;49.676;8.606;2022-08-19T13:54:26;29.3;55.4
43414;DHT22;29013;49.676;8.606;2022-08-19T13:59:48;29.2;55.0
43414;DHT22;29013;49.676;8.606;2022-08-19T14:05:15;29.0;56.1
43414;DHT22;29013;49.676;8.606;2022-08-19T14:10:42;29.1;57.3
43414;DHT22;29013;49.676;8.606;2022-08-19T14:16:13;29.2;56.9
43414;DHT22;29013;49.676;8.606;2022-08-19T14:21:40;29.5;57.9
43414;DHT22;29013;49.676;8.606;2022-08-19T14:27:08;29.8;56.5
43414;DHT22;29013;49.676;8.606;2022-08-19T14:32:32;29.7;54.8
43414;DHT22;29013;49.676;8.606;2022-08-19T14:38:00;29.8;54.4
43414;DHT22;29013;49.676;8.606;2022-08-19T14:43:26;29.6;54.5
43414;DHT22;29013;49.676;8.606;2022-08-19T14:48:52;29.5;54.2
43414;DHT22;29013;49.676;8.606;2022-08-19T14:54:19;29.6;53.1
43414;DHT22;29013;49.676;8.606;2022-08-19T14:59:45;29.5;53.1
43414;DHT22;29013;49.676;8.606;2022-08-19T15:05:09;29.5;54.4
43414;DHT22;29013;49.676;8.606;2022-08-19T15:10:34;29.6;54.2
43414;DHT22;29013;49.676;8.606;2022-08-19T15:16:02;29.7;52.9
43414;DHT22;29013;49.676;8.606;2022-08-19T15:21:24;29.7;53.0
43414;DHT22;29013;49.676;8.606;2022-08-19T15:26:49;29.6;53.1
43414;DHT22;29013;49.676;8.606;2022-08-19T15:32:13;29.5;52.2
43414;DHT22;29013;49.676;8.606;2022-08-19T15:37:39;29.5;53.3
43414;DHT22;29013;49.676;8.606;2022-08-19T15:43:05;29.5;52.3
43414;DHT22;29013;49.676;8.606;2022-08-19T15:48:33;29.4;52.3
43414;DHT22;29013;49.676;8.606;2022-08-19T15:53:56;29.4;52.1
43414;DHT22;29013;49.676;8.606;2022-08-19T15:59:20;29.4;51.7
43414;DHT22;29013;49.676;8.606;2022-08-19T16:04:43;29.4;51.6
43414;DHT22;29013;49.676;8.606;2022-08-19T16:10:06;29.4;51.0
43414;DHT22;29013;49.676;8.606;2022-08-19T16:15:32;29.3;51.0
43414;DHT22;29013;49.676;8.606;2022-08-19T16:20:59;29.2;51.7
43414;DHT22;29013;49.676;8.606;2022-08-19T16:26:21;29.2;52.0
43414;DHT22;29013;49.676;8.606;2022-08-19T16:31:46;29.1;52.3
43414;DHT22;29013;49.676;8.606;2022-08-19T16:37:14;29.0;52.3
43414;DHT22;29013;49.676;8.606;2022-08-19T16:42:45;29.0;52.8
43414;DHT22;29013;49.676;8.606;2022-08-19T16:48:13;28.9;52.8
43414;DHT22;29013;49.676;8.606;2022-08-19T16:53:40;28.9;53.5
43414;DHT22;29013;49.676;8.606;2022-08-19T16:59:04;28.7;53.9
43414;DHT22;29013;49.676;8.606;2022-08-19T17:04:31;28.7;55.4
43414;DHT22;29013;49.676;8.606;2022-08-19T17:09:58;28.7;54.5
43414;DHT22;29013;49.676;8.606;2022-08-19T17:15:21;28.6;55.1
43414;DHT22;29013;49.676;8.606;2022-08-19T17:20:50;28.6;53.9
43414;DHT22;29013;49.676;8.606;2022-08-19T17:26:16;28.5;58.0
43414;DHT22;29013;49.676;8.606;2022-08-19T17:31:40;28.5;54.6
43414;DHT22;29013;49.676;8.606;2022-08-19T17:37:03;28.4;55.7
43414;DHT22;29013;49.676;8.606;2022-08-19T17:42:25;28.4;55.7
43414;DHT22;29013;49.676;8.606;2022-08-19T17:47:47;28.4;55.3
43414;DHT22;29013;49.676;8.606;2022-08-19T17:53:15;28.3;56.2
43414;DHT22;29013;49.676;8.606;2022-08-19T17:58:41;28.3;55.9
43414;DHT22;29013;49.676;8.606;2022-08-19T18:04:06;28.2;55.4
43414;DHT22;29013;49.676;8.606;2022-08-19T18:09:29;28.1;55.6
43414;DHT22;29013;49.676;8.606;2022-08-19T18:14:49;28.1;55.6
43414;DHT22;29013;49.676;8.606;2022-08-19T18:20:13;28.0;56.0
43414;DHT22;29013;49.676;8.606;2022-08-19T18:25:33;27.9;56.2
43414;DHT22;29013;49.676;8.606;2022-08-19T18:31:00;27.7;56.2
43414;DHT22;29013;49.676;8.606;2022-08-19T18:36:27;27.6;56.6
43414;DHT22;29013;49.676;8.606;2022-08-19T18:41:48;27.4;56.8
43414;DHT22;29013;49.676;8.606;2022-08-19T18:47:17;27.2;57.6
43414;DHT22;29013;49.676;8.606;2022-08-19T18:52:43;27.1;58.2
43414;DHT22;29013;49.676;8.606;2022-08-19T18:58:12;27.0;58.7
43414;DHT22;29013;49.676;8.606;2022-08-19T19:03:40;26.8;58.8
43414;DHT22;29013;49.676;8.606;2022-08-19T19:09:02;26.7;59.7
43414;DHT22;29013;49.676;8.606;2022-08-19T19:14:30;26.5;59.2
43414;DHT22;29013;49.676;8.606;2022-08-19T19:19:56;26.3;59.8
43414;DHT22;29013;49.676;8.606;2022-08-19T19:25:21;26.1;62.5
43414;DHT22;29013;49.676;8.606;2022-08-19T19:30:42;25.9;63.5
43414;DHT22;29013;49.676;8.606;2022-08-19T19:36:09;25.7;64.3
43414;DHT22;29013;49.676;8.606;2022-08-19T19:41:32;25.5;63.9
43414;DHT22;29013;49.676;8.606;2022-08-19T19:46:56;25.3;64.7
43414;DHT22;29013;49.676;8.606;2022-08-19T19:52:24;25.1;65.5
43414;DHT22;29013;49.676;8.606;2022-08-19T19:57:48;25.0;67.0
43414;DHT22;29013;49.676;8.606;2022-08-19T20:03:10;24.8;65.9
43414;DHT22;29013;49.676;8.606;2022-08-19T20:08:35;24.7;64.4
43414;DHT22;29013;49.676;8.606;2022-08-19T20:14:09;24.6;64.6
43414;DHT22;29013;49.676;8.606;2022-08-19T20:19:28;24.5;65.4
43414;DHT22;29013;49.676;8.606;2022-08-19T20:24:52;24.5;65.3
43414;DHT22;29013;49.676;8.606;2022-08-19T20:30:17;24.4;65.5
43414;DHT22;29013;49.676;8.606;2022-08-19T20:35:41;24.3;66.4
43414;DHT22;29013;49.676;8.606;2022-08-19T20:41:05;24.2;67.2
43414;DHT22;29013;49.676;8.606;2022-08-19T20:46:32;24.1;67.4
43414;DHT22;29013;49.676;8.606;2022-08-19T20:51:58;24.0;67.5
43414;DHT22;29013;49.676;8.606;2022-08-19T20:57:21;24.0;68.1
43414;DHT22;29013;49.676;8.606;2022-08-19T21:02:49;23.8;68.6
43414;DHT22;29013;49.676;8.606;2022-08-19T21:08:14;23.7;69.4
43414;DHT22;29013;49.676;8.606;2022-08-19T21:13:41;23.6;69.3
43414;DHT22;29013;49.676;8.606;2022-08-19T21:19:06;23.5;69.7
43414;DHT22;29013;49.676;8.606;2022-08-19T21:24:35;23.4;69.6
43414;DHT22;29013;49.676;8.606;2022-08-19T21:30:01;23.3;70.3
43414;DHT22;29013;49.676;8.606;2022-08-19T21:35:27;23.2;71.6
43414;DHT22;29013;49.676;8.606;2022-08-19T21:40:49;23.1;72.2
43414;DHT22;29013;49.676;8.606;2022-08-19T21:46:12;22.9;72.1
43414;DHT22;29013;49.676;8.606;2022-08-19T21:51:36;22.9;72.3
43414;DHT22;29013;49.676;8.606;2022-08-19T21:57:02;22.7;73.8
43414;DHT22;29013;49.676;8.606;2022-08-19T22:02:27;22.6;73.6
43414;DHT22;29013;49.676;8.606;2022-08-19T22:07:51;22.6;73.9
43414;DHT22;29013;49.676;8.606;2022-08-19T22:13:17;22.5;73.8
43414;DHT22;29013;49.676;8.606;2022-08-19T22:18:41;22.4;74.6
43414;DHT22;29013;49.676;8.606;2022-08-19T22:24:08;22.3;74.8
43414;DHT22;29013;49.676;8.606;2022-08-19T22:29:33;22.2;74.8
43414;DHT22;29013;49.676;8.606;2022-08-19T22:35:00;22.1;75.4
43414;DHT22;29013;49.676;8.606;2022-08-19T22:40:27;22.1;75.6
43414;DHT22;29013;49.676;8.606;2022-08-19T22:45:53;22.0;75.9
43414;DHT22;29013;49.676;8.606;2022-08-19T22:51:19;21.9;76.1
43414;DHT22;29013;49.676;8.606;2022-08-19T22:56:44;21.8;76.3
43414;DHT22;29013;49.676;8.606;2022-08-19T23:02:15;21.8;76.5
43414;DHT22;29013;49.676;8.606;2022-08-19T23:07:33;21.7;76.3
43414;DHT22;29013;49.676;8.606;2022-08-19T23:13:00;21.7;76.7
43414;DHT22;29013;49.676;8.606;2022-08-19T23:18:26;21.6;77.5
43414;DHT22;29013;49.676;8.606;2022-08-19T23:23:47;21.6;77.7
43414;DHT22;29013;49.676;8.606;2022-08-19T23:29:14;21.6;78.3
43414;DHT22;29013;49.676;8.606;2022-08-19T23:34:42;21.6;78.6
43414;DHT22;29013;49.676;8.606;2022-08-19T23:40:11;21.6;79.2
43414;DHT22;29013;49.676;8.606;2022-08-19T23:45:35;21.6;79.0
43414;DHT22;29013;49.676;8.606;2022-08-19T23:50:58;21.4;80.0
43414;DHT22;29013;49.676;8.606;2022-08-19T23:56:22;21.4;80.7
